Time;durP1;ratioP1;P1;durP2;ratioP2;P2;SDS_P1;SDS_P2;PMS_P1;PMS_P2;Temp;Humidity;BMP_temperature;BMP_pressure;BME280_temperature;BME280_humidity;BME280_pressure;Samples;Min_cycle;Max_cycle;Signal;HPM_P1;HPM_P2
2022/06/16 00:01:39;;;;;;;5.22;3.63;;;;;;;15.31;82.13;95055.78;5052300;28;20257;-74
2022/06/16 00:04:06;;;;;;;8.38;5.10;;;;;;;15.19;82.66;95053.84;5052429;28;20203;-73
2022/06/16 00:06:36;;;;;;;6.22;4.25;;;;;;;15.17;82.35;95047.97;5051427;28;20231;-73
2022/06/16 00:09:03;;;;;;;6.70;4.50;;;;;;;15.18;82.50;95044.06;5052032;28;20242;-73
2022/06/16 00:11:31;;;;;;;9.95;4.30;;;;;;;15.24;82.42;95048.97;5051632;28;20689;-73
2022/06/16 00:13:57;;;;;;;11.68;4.45;;;;;;;15.15;82.33;95044.78;5051869;28;20244;-73
2022/06/16 00:16:25;;;;;;;5.80;4.25;;;;;;;15.10;82.85;95045.03;5052031;28;20199;-73
2022/06/16 00:18:52;;;;;;;5.85;4.47;;;;;;;15.06;83.02;95041.38;5051832;28;20250;-73
2022/06/16 00:21:19;;;;;;;6.18;4.65;;;;;;;14.97;83.17;95052.44;5051848;28;20211;-73
2022/06/16 00:23:47;;;;;;;9.70;5.03;;;;;;;14.99;83.11;95058.34;5051268;28;20759;-74
2022/06/16 00:26:17;;;;;;;6.72;4.53;;;;;;;15.00;83.25;95048.25;5051269;28;20253;-73
2022/06/16 00:28:45;;;;;;;9.50;4.50;;;;;;;14.86;83.38;95054.88;5051567;28;20223;-73
2022/06/16 00:31:13;;;;;;;6.00;4.38;;;;;;;14.81;83.67;95052.38;5051534;28;20220;-73
2022/06/16 00:33:41;;;;;;;6.80;5.03;;;;;;;14.83;83.68;95050.09;5050586;28;20263;-73
2022/06/16 00:36:09;;;;;;;7.10;4.80;;;;;;;14.83;83.60;95052.81;5051235;28;20258;-73
2022/06/16 00:38:36;;;;;;;16.25;4.57;;;;;;;14.88;83.29;95058.06;5050814;28;20230;-73
2022/06/16 00:41:04;;;;;;;8.50;4.82;;;;;;;14.77;83.77;95048.72;5051256;28;20301;-73
2022/06/16 00:43:32;;;;;;;7.68;4.80;;;;;;;14.77;83.94;95051.44;5052110;28;20235;-73
2022/06/16 00:46:01;;;;;;;8.65;4.95;;;;;;;14.80;84.14;95052.69;5051896;28;20269;-73
2022/06/16 00:48:32;;;;;;;15.30;5.32;;;;;;;14.68;84.41;95053.53;5050928;28;20671;-73
2022/06/16 00:51:07;;;;;;;7.22;4.82;;;;;;;14.68;84.40;95053.53;5037932;28;20493;-73
2022/06/16 00:53:35;;;;;;;6.22;4.63;;;;;;;14.68;84.38;95048.06;5050811;28;20260;-74
2022/06/16 00:56:04;;;;;;;9.38;4.72;;;;;;;14.57;85.00;95050.47;5050260;28;20195;-74
2022/06/16 00:58:32;;;;;;;8.48;4.93;;;;;;;14.64;84.76;95047.16;5050486;28;20231;-74
2022/06/16 01:00:58;;;;;;;6.70;4.57;;;;;;;14.67;84.45;95049.19;5051012;28;20223;-74
2022/06/16 01:06:20;;;;;;;7.43;4.80;;;;;;;14.59;85.48;95039.22;5050876;28;20222;-73
2022/06/16 01:08:50;;;;;;;7.15;4.68;;;;;;;14.65;84.77;95043.28;5037341;28;20642;-74
2022/06/16 01:14:30;;;;;;;8.48;4.53;;;;;;;14.72;84.28;95043.53;5050667;28;20326;-74
2022/06/16 01:17:04;;;;;;;10.30;4.65;;;;;;;14.61;84.38;95031.50;5038362;28;20220;-74
2022/06/16 01:19:56;;;;;;;6.10;4.55;;;;;;;14.62;84.40;95038.53;5050748;28;20194;-73
2022/06/16 01:22:58;;;;;;;6.38;4.65;;;;;;;14.61;84.68;95036.97;5050589;28;20242;-74
2022/06/16 01:25:35;;;;;;;5.88;4.05;;;;;;;14.59;84.92;95033.78;5051039;28;20203;-73
2022/06/16 01:28:21;;;;;;;8.75;5.30;;;;;;;14.66;85.12;95039.44;5050632;28;20253;-73
2022/06/16 01:30:57;;;;;;;8.55;4.22;;;;;;;14.69;84.98;95036.03;5050657;28;20285;-73
2022/06/16 01:33:30;;;;;;;8.98;5.00;;;;;;;14.67;85.28;95035.56;5050876;28;20230;-73
2022/06/16 01:36:06;;;;;;;8.20;5.80;;;;;;;14.59;85.67;95033.78;5051070;28;20254;-74
2022/06/16 01:38:42;;;;;;;13.68;4.90;;;;;;;14.59;85.42;95028.31;5050533;28;20272;-73
2022/06/16 01:41:17;;;;;;;7.18;4.68;;;;;;;14.60;85.70;95027.19;5050269;28;20582;-73
2022/06/16 01:43:49;;;;;;;5.07;4.00;;;;;;;14.62;85.39;95021.38;5052779;28;20230;-74
2022/06/16 01:46:23;;;;;;;7.70;4.15;;;;;;;14.61;85.12;95020.59;5054377;28;20237;-73
2022/06/16 01:48:54;;;;;;;9.68;4.53;;;;;;;14.57;84.80;95019.69;5054451;28;20196;-73
2022/06/16 01:51:29;;;;;;;9.10;4.55;;;;;;;14.57;84.60;95022.41;5054224;28;20716;-73
2022/06/16 01:54:01;;;;;;;7.05;4.40;;;;;;;14.47;84.55;95020.16;5054577;28;20282;-73
2022/06/16 01:56:39;;;;;;;9.18;5.18;;;;;;;14.16;86.14;95016.03;5054201;28;20751;-73
2022/06/16 01:59:21;;;;;;;7.53;4.93;;;;;;;14.13;86.82;95016.72;5041034;28;20633;-73
2022/06/16 02:01:54;;;;;;;6.78;4.72;;;;;;;14.15;86.53;95019.91;5054350;28;20771;-73
2022/06/16 02:04:28;;;;;;;8.48;5.22;;;;;;;14.13;87.41;95016.72;5054154;28;20710;-73
2022/06/16 02:07:00;;;;;;;5.22;3.97;;;;;;;14.15;87.81;95019.91;5054070;28;20291;-73
2022/06/16 02:09:33;;;;;;;13.20;5.28;;;;;;;14.14;87.74;95017.50;5054147;28;20232;-73
2022/06/16 02:12:04;;;;;;;6.40;4.45;;;;;;;14.06;88.01;95016.50;5053667;28;20747;-74
2022/06/16 02:14:35;;;;;;;6.80;3.80;;;;;;;14.00;87.45;95023.28;5053979;28;20228;-74
2022/06/16 02:17:05;;;;;;;10.07;4.32;;;;;;;14.04;87.63;95018.75;5054172;28;20195;-74
2022/06/16 02:19:32;;;;;;;7.03;4.38;;;;;;;14.05;86.99;95020.34;5053780;28;20269;-74
2022/06/16 02:21:59;;;;;;;6.72;4.57;;;;;;;14.03;86.75;95022.63;5053942;28;20725;-74
2022/06/16 02:24:29;;;;;;;7.70;4.13;;;;;;;14.03;86.99;95022.63;5053780;28;20243;-74
2022/06/16 02:26:58;;;;;;;7.20;4.50;;;;;;;14.06;87.11;95032.84;5053895;28;20607;-74
2022/06/16 02:29:29;;;;;;;6.90;4.63;;;;;;;14.06;86.87;95032.84;5053646;28;20239;-73
2022/06/16 02:32:29;;;;;;;6.88;4.40;;;;;;;14.15;86.51;95025.34;5053741;28;20223;-74
2022/06/16 02:35:06;;;;;;;8.18;4.53;;;;;;;14.16;86.21;95035.13;5042085;28;20235;-73
2022/06/16 02:37:49;;;;;;;8.52;4.85;;;;;;;14.33;85.84;95033.31;5053641;28;20424;-73
2022/06/16 02:40:34;;;;;;;7.72;4.97;;;;;;;14.34;85.97;95038.41;5053736;28;20204;-74
2022/06/16 02:43:12;;;;;;;5.63;3.70;;;;;;;14.48;86.08;95043.56;5040792;28;20231;-73
2022/06/16 02:45:46;;;;;;;8.05;4.60;;;;;;;14.50;86.02;95035.81;5055150;28;20542;-73
2022/06/16 02:48:21;;;;;;;7.95;4.90;;;;;;;14.58;85.47;95043.88;5053236;28;20248;-72
2022/06/16 02:51:00;;;;;;;6.38;4.53;;;;;;;14.80;85.28;95044.53;5053354;28;20195;-72
2022/06/16 02:53:37;;;;;;;7.18;4.40;;;;;;;14.96;84.58;95041.88;5053195;28;20723;-72
2022/06/16 02:56:10;;;;;;;6.47;3.78;;;;;;;14.91;84.61;95040.97;5052998;28;20303;-73
2022/06/16 02:58:40;;;;;;;7.68;4.90;;;;;;;14.96;83.84;95047.34;5053428;28;20273;-73
2022/06/16 03:01:09;;;;;;;9.05;4.72;;;;;;;15.04;83.44;95049.13;5052430;28;20263;-72
2022/06/16 03:03:37;;;;;;;5.95;4.43;;;;;;;15.03;83.13;95047.56;5052133;28;20235;-74
2022/06/16 03:06:05;;;;;;;7.97;4.10;;;;;;;15.08;83.15;95050.03;5052531;28;20249;-73
2022/06/16 03:08:42;;;;;;;13.95;4.18;;;;;;;15.16;82.63;95052.63;5052585;28;20641;-73
2022/06/16 03:11:11;;;;;;;5.25;3.72;;;;;;;15.23;81.76;95052.03;5052605;28;20258;-73
2022/06/16 03:13:38;;;;;;;5.25;4.00;;;;;;;15.23;82.65;95057.50;5052101;28;20578;-73
2022/06/16 03:16:05;;;;;;;6.32;4.20;;;;;;;15.32;82.46;95049.94;5052233;28;20637;-73
2022/06/16 03:18:32;;;;;;;5.05;4.03;;;;;;;15.41;82.95;95047.88;5052407;28;20219;-73
2022/06/16 03:21:00;;;;;;;6.72;4.32;;;;;;;15.49;82.24;95049.66;5052754;28;20203;-73
2022/06/16 03:23:27;;;;;;;6.40;4.70;;;;;;;15.68;81.73;95042.78;5039556;28;20643;-73
2022/06/16 03:25:54;;;;;;;7.22;4.38;;;;;;;15.49;82.30;95049.66;5052807;28;20609;-73
2022/06/16 03:28:21;;;;;;;5.57;4.47;;;;;;;15.49;82.42;95041.47;5039562;28;20219;-73
2022/06/16 03:30:48;;;;;;;11.05;4.45;;;;;;;15.70;82.17;95037.75;5051939;28;20200;-73
2022/06/16 03:33:15;;;;;;;8.70;4.47;;;;;;;15.88;82.86;95041.72;5052100;28;20228;-72
2022/06/16 03:35:43;;;;;;;8.15;4.55;;;;;;;16.02;81.68;95047.56;5052531;28;20223;-73
2022/06/16 03:38:14;;;;;;;9.60;6.30;;;;;;;16.51;79.27;95039.03;5052744;28;20685;-72
2022/06/16 03:40:42;;;;;;;4.93;4.43;;;;;;;16.92;77.68;95029.44;5052141;28;20284;-72
2022/06/16 03:43:09;;;;;;;5.95;4.63;;;;;;;17.29;75.52;95030.59;5052040;28;20285;-72
2022/06/16 03:45:38;;;;;;;10.68;4.45;;;;;;;17.62;75.20;95032.84;5053978;28;20207;-73
2022/06/16 03:48:09;;;;;;;9.18;6.75;;;;;;;18.11;74.02;95032.19;5052255;28;20203;-73
2022/06/16 03:50:36;;;;;;;6.72;4.68;;;;;;;18.21;72.05;95031.56;5052817;28;20200;-73
2022/06/16 03:53:03;;;;;;;7.95;6.28;;;;;;;18.26;71.64;95034.00;5052225;28;20303;-73
2022/06/16 03:55:32;;;;;;;7.30;4.30;;;;;;;18.55;71.89;95029.00;5052190;28;20330;-74
2022/06/16 03:57:59;;;;;;;5.72;4.70;;;;;;;19.21;70.09;95022.13;5052027;28;20290;-73
2022/06/16 04:00:26;;;;;;;8.00;5.93;;;;;;;19.00;68.05;95023.41;5052319;28;20260;-74
2022/06/16 04:05:38;;;;;;;8.68;6.47;;;;;;;20.42;63.69;95025.03;5037783;28;20207;-74
2022/06/16 04:08:06;;;;;;;9.60;5.85;;;;;;;21.43;61.88;95016.28;5050720;28;20224;-74
2022/06/16 04:10:34;;;;;;;9.50;6.13;;;;;;;21.59;59.93;95030.53;5051996;28;20206;-73
2022/06/16 04:13:01;;;;;;;10.77;6.10;;;;;;;21.72;59.99;95017.97;5051484;28;20277;-73
2022/06/16 04:15:29;;;;;;;7.30;5.60;;;;;;;22.19;58.61;95013.34;5051803;28;20235;-73
2022/06/16 04:17:55;;;;;;;6.53;5.40;;;;;;;23.15;55.59;95013.31;5051499;28;20220;-74
2022/06/16 04:20:22;;;;;;;10.02;6.43;;;;;;;23.17;55.21;95014.50;5051957;28;20662;-74
2022/06/16 04:22:50;;;;;;;8.13;6.20;;;;;;;23.08;54.88;95014.13;5051866;28;20231;-74
2022/06/16 04:25:20;;;;;;;7.63;6.03;;;;;;;23.10;56.07;95017.28;5051746;28;20247;-74
2022/06/16 04:27:50;;;;;;;6.50;5.80;;;;;;;24.27;52.55;95010.50;5052077;28;20226;-74
2022/06/16 04:30:18;;;;;;;6.50;5.80;;;;;;;24.87;50.40;95010.03;5051408;28;20285;-74
2022/06/16 04:32:45;;;;;;;9.57;6.78;;;;;;;24.39;52.10;95018.31;5051786;28;20203;-74
2022/06/16 04:35:12;;;;;;;8.40;6.63;;;;;;;23.74;52.84;95017.09;5051579;28;20223;-74
2022/06/16 04:37:39;;;;;;;9.00;5.95;;;;;;;23.95;53.35;95011.44;5051382;28;20204;-74
2022/06/16 04:40:09;;;;;;;8.68;6.43;;;;;;;23.64;53.20;95007.63;5051390;28;20215;-74
2022/06/16 04:42:36;;;;;;;8.23;6.07;;;;;;;25.04;51.02;95008.28;5050917;28;20670;-74
2022/06/16 04:45:05;;;;;;;7.10;6.15;;;;;;;25.72;48.91;95008.34;5053414;28;20763;-74
2022/06/16 04:47:32;;;;;;;9.32;6.82;;;;;;;25.96;48.35;95003.69;5051061;28;20686;-74
2022/06/16 04:49:59;;;;;;;7.95;6.47;;;;;;;27.30;45.53;95003.53;5051299;28;20199;-75
2022/06/16 04:52:25;;;;;;;12.50;6.25;;;;;;;27.30;45.86;94997.97;5051104;28;20807;-74
2022/06/16 04:54:52;;;;;;;9.48;6.90;;;;;;;27.48;44.14;95009.53;5051549;28;20270;-72
2022/06/16 04:57:20;;;;;;;9.95;6.32;;;;;;;26.85;46.09;95006.69;5050827;28;20219;-73
2022/06/16 04:59:46;;;;;;;8.15;6.40;;;;;;;27.79;44.06;95006.56;5051414;28;20360;-74
2022/06/16 05:02:15;;;;;;;10.57;6.95;;;;;;;27.39;44.63;95012.09;5050958;28;20281;-74
2022/06/16 05:04:44;;;;;;;9.23;7.05;;;;;;;27.47;44.45;95007.97;5050978;28;20710;-74
2022/06/16 05:07:11;;;;;;;8.88;6.75;;;;;;;28.61;42.89;95005.56;5051051;28;20693;-73
2022/06/16 05:09:38;;;;;;;9.77;6.90;;;;;;;29.15;41.14;95005.03;5051028;28;20204;-75
2022/06/16 05:12:06;;;;;;;8.05;6.50;;;;;;;29.73;40.23;94999.50;5037701;28;20224;-73
2022/06/16 05:14:33;;;;;;;9.43;6.93;;;;;;;28.92;40.95;95006.81;5050144;28;20251;-75
2022/06/16 05:17:00;;;;;;;7.28;6.57;;;;;;;29.74;39.67;95003.84;5050816;28;20276;-74
2022/06/16 05:19:30;;;;;;;10.07;6.63;;;;;;;30.43;38.19;95007.03;5050178;28;20200;-73
2022/06/16 05:22:00;;;;;;;11.52;7.75;;;;;;;30.42;38.46;95002.66;5051029;28;20192;-74
2022/06/16 05:24:27;;;;;;;8.05;7.25;;;;;;;31.24;37.29;94998.00;5050513;28;20750;-74
2022/06/16 05:26:54;;;;;;;10.27;7.05;;;;;;;31.82;36.24;94997.56;5050895;28;20227;-73
2022/06/16 05:29:21;;;;;;;9.82;6.65;;;;;;;30.93;37.91;94995.81;5050647;28;20234;-73
2022/06/16 05:31:48;;;;;;;7.82;7.03;;;;;;;31.21;37.48;95005.28;5050765;28;20225;-74
2022/06/16 05:34:16;;;;;;;10.63;7.47;;;;;;;31.72;36.67;95002.31;5050791;28;20257;-74
2022/06/16 05:36:45;;;;;;;11.95;7.65;;;;;;;31.47;37.09;95005.97;5050566;28;20199;-74
2022/06/16 05:39:12;;;;;;;12.93;8.02;;;;;;;31.06;37.55;95015.38;5050078;28;20219;-74
2022/06/16 05:41:39;;;;;;;8.10;7.03;;;;;;;30.40;39.25;95017.88;5050294;28;20253;-75
2022/06/16 05:44:06;;;;;;;9.55;7.70;;;;;;;31.40;37.34;95006.25;5050312;28;20234;-74
2022/06/16 05:46:33;;;;;;;10.60;8.50;;;;;;;31.44;37.61;95007.66;5050726;28;20215;-73
2022/06/16 05:49:00;;;;;;;11.27;8.77;;;;;;;30.16;39.63;95021.41;5050262;28;20285;-73
2022/06/16 05:51:27;;;;;;;11.30;8.98;;;;;;;30.87;39.18;95020.00;5050581;28;20802;-75
2022/06/16 05:53:55;;;;;;;15.95;10.68;;;;;;;30.70;38.90;95015.75;5050213;28;20281;-77
2022/06/16 05:56:22;;;;;;;17.55;11.70;;;;;;;29.26;40.69;95022.28;5047607;28;20229;-77
2022/06/16 05:58:49;;;;;;;17.27;11.68;;;;;;;28.09;43.23;95028.63;5050439;28;20713;-76
2022/06/16 06:01:16;;;;;;;16.98;11.30;;;;;;;27.80;45.09;95030.41;5050504;28;20196;-75
2022/06/16 06:03:43;;;;;;;13.38;10.90;;;;;;;29.70;41.60;95017.91;5050060;28;20236;-74
2022/06/16 06:06:11;;;;;;;16.23;9.88;;;;;;;30.34;39.61;95022.44;5050297;28;20226;-75
2022/06/16 06:16:58;;;;;;;13.23;10.18;;;;;;;30.03;40.45;95018.59;5037124;28;20241;-76
2022/06/16 06:19:25;;;;;;;16.92;11.68;;;;;;;29.23;42.11;95014.81;5050368;28;20785;-76
2022/06/16 06:22:00;;;;;;;18.35;11.55;;;;;;;29.22;42.02;95011.22;5050219;28;20282;-75
2022/06/16 06:24:29;;;;;;;19.35;12.90;;;;;;;28.85;42.92;95018.13;5049575;28;20282;-75
2022/06/16 06:26:59;;;;;;;16.90;11.88;;;;;;;28.44;44.43;95024.25;5050501;28;20203;-75
2022/06/16 06:29:26;;;;;;;17.60;11.15;;;;;;;28.43;44.36;95033.09;5049544;28;20285;-75
2022/06/16 06:31:53;;;;;;;12.85;10.20;;;;;;;29.39;42.45;95020.34;5050685;28;20227;-75
2022/06/16 06:34:20;;;;;;;14.02;10.80;;;;;;;30.60;39.84;95016.91;5053542;28;20212;-74
2022/06/16 06:36:47;;;;;;;19.15;10.63;;;;;;;31.08;39.01;95002.50;5053383;28;20227;-74
2022/06/16 06:39:13;;;;;;;17.08;10.57;;;;;;;30.66;40.03;95020.69;5053339;28;20223;-75
2022/06/16 06:41:41;;;;;;;13.80;10.25;;;;;;;30.38;40.33;95020.31;5053492;28;20212;-75
2022/06/16 06:44:09;;;;;;;15.75;10.75;;;;;;;29.62;42.09;95030.53;5054950;28;20223;-75
2022/06/16 06:46:36;;;;;;;15.60;10.77;;;;;;;29.67;42.42;95027.97;5053299;28;20258;-75
2022/06/16 06:49:03;;;;;;;16.25;11.20;;;;;;;28.75;44.99;95033.09;5053391;28;20232;-74
2022/06/16 06:51:30;;;;;;;16.42;10.60;;;;;;;31.06;41.09;95007.75;5052738;28;20725;-76
2022/06/16 06:53:57;;;;;;;14.63;10.85;;;;;;;31.91;38.35;95011.63;5053086;28;20658;-75
2022/06/16 06:56:25;;;;;;;15.82;11.32;;;;;;;31.76;38.14;95011.38;5053004;28;20232;-75
2022/06/16 06:58:53;;;;;;;14.10;10.75;;;;;;;28.65;44.22;95023.00;5053125;28;20310;-75
2022/06/16 07:01:21;;;;;;;16.70;11.52;;;;;;;28.17;44.77;95020.88;5052636;28;20620;-74
2022/06/16 07:03:49;;;;;;;17.95;11.93;;;;;;;26.28;50.04;95042.09;5052598;28;20613;-74
2022/06/16 07:06:20;;;;;;;17.08;12.02;;;;;;;26.18;50.60;95029.94;5052795;28;20204;-76
2022/06/16 07:08:47;;;;;;;20.17;13.18;;;;;;;25.13;54.45;95039.09;5040211;28;20235;-74
2022/06/16 07:11:14;;;;;;;18.42;12.10;;;;;;;26.59;50.41;95018.66;5052585;28;20301;-75
2022/06/16 07:13:41;;;;;;;17.00;12.15;;;;;;;27.92;47.24;95010.28;5052793;28;20235;-76
2022/06/16 07:16:10;;;;;;;16.42;11.88;;;;;;;27.84;46.69;95018.00;5053073;28;20209;-75
2022/06/16 07:18:39;;;;;;;19.10;12.88;;;;;;;27.07;48.63;95021.03;5052523;28;20207;-75
2022/06/16 07:21:08;;;;;;;18.58;13.25;;;;;;;25.61;52.55;95025.13;5052655;28;20224;-75
2022/06/16 07:23:35;;;;;;;18.13;12.52;;;;;;;26.96;49.47;95020.44;5051906;28;20227;-73
2022/06/16 07:26:02;;;;;;;15.82;11.90;;;;;;;28.69;45.58;95012.56;5052083;28;20668;-78
2022/06/16 07:28:34;;;;;;;15.43;11.65;;;;;;;30.24;41.93;95006.78;5052353;28;20211;-77
2022/06/16 07:31:01;;;;;;;17.77;13.10;;;;;;;29.12;42.83;95005.91;5052916;28;20211;-80
2022/06/16 07:33:27;;;;;;;16.08;12.70;;;;;;;28.06;45.07;95015.53;5052609;28;20211;-77
2022/06/16 07:35:57;;;;;;;18.05;13.70;;;;;;;27.60;46.57;95005.38;5052500;28;20224;-76
2022/06/16 07:38:26;;;;;;;17.45;13.38;;;;;;;27.74;46.86;95007.09;5051749;28;20286;-75
2022/06/16 07:41:30;;;;;;;21.00;13.70;;;;;;;27.61;47.17;95017.31;5049371;28;20737;-76
2022/06/16 07:43:40;;;;;;;16.80;11.95;;;;;;;27.09;48.50;95017.84;5042879;28;20294;-77
2022/06/16 07:46:07;;;;;;;17.85;13.20;;;;;;;27.42;47.17;95008.47;5045533;28;20282;-77
2022/06/16 07:48:34;;;;;;;16.17;12.02;;;;;;;27.93;46.35;95006.28;5045788;28;20325;-77
2022/06/16 07:51:03;;;;;;;18.00;13.20;;;;;;;28.75;44.87;94994.06;5052679;28;20255;-78
2022/06/16 07:53:29;;;;;;;15.15;12.00;;;;;;;29.60;42.55;95002.25;5051529;28;20227;-78
2022/06/16 07:55:56;;;;;;;18.35;13.05;;;;;;;28.78;43.30;95004.34;5052436;28;20223;-77
2022/06/16 07:58:29;;;;;;;18.23;13.35;;;;;;;29.40;43.26;95005.19;5052206;28;20547;-76
2022/06/16 08:00:56;;;;;;;15.20;12.07;;;;;;;27.53;45.70;95017.41;5052237;28;20652;-76
2022/06/16 08:03:26;;;;;;;19.10;12.25;;;;;;;26.69;47.39;95014.91;5051970;28;20228;-77
2022/06/16 08:05:53;;;;;;;18.83;12.80;;;;;;;27.34;46.73;95009.81;5049483;28;20247;-77
2022/06/16 08:08:23;;;;;;;17.30;12.32;;;;;;;26.50;47.56;95018.41;5051615;28;20218;-77
2022/06/16 08:10:50;;;;;;;17.13;13.07;;;;;;;26.53;48.19;95020.31;5051281;28;20235;-77
2022/06/16 08:13:17;;;;;;;19.30;14.15;;;;;;;25.15;52.60;95022.81;5033388;28;20208;-76
2022/06/16 08:15:45;;;;;;;18.38;13.50;;;;;;;26.26;50.81;95014.75;5041033;28;20255;-77
2022/06/16 08:18:14;;;;;;;17.25;13.27;;;;;;;27.97;46.52;95007.00;5050350;28;20634;-78
2022/06/16 08:20:42;;;;;;;15.95;11.32;;;;;;;28.45;42.93;95002.75;5050604;28;20285;-77
2022/06/16 08:23:10;;;;;;;16.55;12.30;;;;;;;28.84;42.49;95015.78;5050473;28;20265;-76
2022/06/16 08:25:39;;;;;;;14.95;11.52;;;;;;;28.24;44.10;95010.41;5044436;28;20235;-75
2022/06/16 08:28:07;;;;;;;16.25;12.93;;;;;;;28.02;43.80;95020.41;5045232;28;20224;-76
2022/06/16 08:30:37;;;;;;;16.40;12.32;;;;;;;27.66;44.89;95014.00;5050240;28;20273;-77
2022/06/16 08:33:04;;;;;;;15.43;11.73;;;;;;;27.34;44.60;95020.94;5046434;28;20329;-76
2022/06/16 08:35:31;;;;;;;15.10;11.88;;;;;;;26.11;46.93;95025.25;5049764;28;20207;-77
2022/06/16 08:37:59;;;;;;;14.55;11.13;;;;;;;25.55;48.37;95028.75;5050521;28;20302;-77
2022/06/16 08:40:26;;;;;;;15.85;12.55;;;;;;;25.52;48.66;95021.25;5050034;28;20254;-77
2022/06/16 08:43:00;;;;;;;16.38;11.95;;;;;;;25.32;49.33;95021.84;5049748;28;20234;-77
2022/06/16 08:45:32;;;;;;;18.52;12.45;;;;;;;25.11;50.09;95024.88;5047446;28;20227;-76
2022/06/16 08:48:22;;;;;;;14.75;11.00;;;;;;;26.20;47.70;95016.44;5049761;28;20228;-77
2022/06/16 08:50:55;;;;;;;15.98;12.07;;;;;;;26.57;45.56;95011.94;5049223;28;20289;-77
2022/06/16 08:53:40;;;;;;;16.85;11.07;;;;;;;26.04;47.79;95014.28;5049763;28;20235;-77
2022/06/16 08:56:10;;;;;;;17.83;12.48;;;;;;;26.07;48.47;95013.44;5048398;28;20615;-75
2022/06/16 08:58:44;;;;;;;16.63;11.80;;;;;;;26.45;46.79;95016.09;5049391;28;20223;-76
2022/06/16 09:01:14;;;;;;;18.30;12.13;;;;;;;26.83;46.07;95008.31;5049745;28;20231;-76
2022/06/16 09:03:46;;;;;;;13.73;10.90;;;;;;;27.26;44.41;95008.38;5047587;28;20215;-76
2022/06/16 09:06:25;;;;;;;13.63;11.07;;;;;;;28.53;41.94;94998.59;5047201;28;20706;-77
2022/06/16 09:09:02;;;;;;;13.35;10.98;;;;;;;28.51;41.66;94993.44;5036136;28;20297;-77
2022/06/16 09:11:36;;;;;;;12.50;9.95;;;;;;;29.25;40.11;94992.78;5049562;28;20531;-77
2022/06/16 09:17:20;;;;;;;10.43;9.05;;;;;;;29.56;38.30;94990.38;5037260;28;20219;-76
2022/06/16 09:20:00;;;;;;;12.70;10.65;;;;;;;29.58;39.03;94999.91;5049393;28;20697;-76
2022/06/16 09:22:41;;;;;;;15.27;10.32;;;;;;;29.10;39.13;94992.41;5048844;28;20302;-76
2022/06/16 09:25:23;;;;;;;12.27;10.10;;;;;;;27.42;41.47;94994.56;5049429;28;20219;-76
2022/06/16 09:27:55;;;;;;;12.32;10.07;;;;;;;27.20;41.58;94983.03;5049365;28;20211;-76
2022/06/16 09:30:27;;;;;;;14.60;10.50;;;;;;;27.03;43.25;94980.59;5049232;28;20227;-75
2022/06/16 09:32:57;;;;;;;14.20;10.65;;;;;;;27.34;43.24;94992.31;5048656;28;20223;-76
2022/06/16 09:35:29;;;;;;;14.38;11.32;;;;;;;27.86;42.16;94984.16;5049615;28;20593;-76
2022/06/16 09:38:02;;;;;;;11.60;10.18;;;;;;;28.43;40.51;94983.66;5049257;28;20597;-77
2022/06/16 09:40:33;;;;;;;13.38;9.95;;;;;;;28.72;40.67;94978.19;5049468;28;20749;-75
2022/06/16 09:43:10;;;;;;;12.20;10.00;;;;;;;28.79;39.68;94969.69;5036232;28;20352;-77
2022/06/16 09:45:43;;;;;;;12.27;10.13;;;;;;;28.10;39.60;94974.47;5034943;28;20239;-75
2022/06/16 09:48:16;;;;;;;11.25;9.55;;;;;;;28.83;39.09;94966.81;5048798;28;20272;-75
2022/06/16 09:50:48;;;;;;;11.77;9.35;;;;;;;29.73;38.65;94955.59;5048299;28;20215;-76
2022/06/16 09:53:21;;;;;;;13.30;10.00;;;;;;;28.28;39.38;94966.53;5049058;28;20664;-76
2022/06/16 09:55:52;;;;;;;13.68;9.00;;;;;;;28.27;40.45;94964.16;5049317;28;20612;-77
2022/06/16 09:58:29;;;;;;;12.02;9.05;;;;;;;27.44;40.68;94975.44;5049295;28;20216;-76
2022/06/16 10:01:00;;;;;;;11.23;9.57;;;;;;;28.03;40.58;94969.03;5049106;28;20199;-77
2022/06/16 10:03:32;;;;;;;15.73;10.30;;;;;;;28.85;38.89;94967.91;5048824;28;20231;-77
2022/06/16 10:06:08;;;;;;;12.13;10.18;;;;;;;29.14;39.60;94964.38;5050957;28;20216;-77
2022/06/16 10:08:43;;;;;;;13.05;9.70;;;;;;;30.06;38.34;94956.25;5053585;28;20219;-76
2022/06/16 10:11:16;;;;;;;12.20;9.63;;;;;;;28.18;39.31;94956.38;5053015;28;20191;-76
2022/06/16 10:13:50;;;;;;;12.43;9.73;;;;;;;27.95;40.63;94964.84;5040795;28;20212;-76
2022/06/16 10:16:25;;;;;;;10.95;9.68;;;;;;;28.29;39.23;94951.34;5048052;28;20673;-78
2022/06/16 10:18:51;;;;;;;13.85;9.32;;;;;;;28.43;38.02;94949.47;5049765;28;20222;-76
2022/06/16 10:21:18;;;;;;;12.95;9.73;;;;;;;28.29;38.80;94945.78;5049607;28;20246;-76
2022/06/16 10:23:50;;;;;;;11.65;9.88;;;;;;;28.24;39.00;94948.31;5052131;28;20242;-75
2022/06/16 10:26:17;;;;;;;13.80;12.00;;;;;;;28.42;38.91;94945.88;5052713;28;20230;-77
2022/06/16 10:29:01;;;;;;;12.13;9.68;;;;;;;29.27;40.37;94945.69;5052364;28;20231;-76
2022/06/16 10:31:40;;;;;;;12.93;9.77;;;;;;;29.00;40.67;94946.03;5039162;28;20196;-76
2022/06/16 10:34:21;;;;;;;13.73;10.30;;;;;;;29.04;38.25;94948.72;5052446;28;20192;-78
2022/06/16 10:36:55;;;;;;;12.43;9.63;;;;;;;29.81;38.86;94939.38;5052474;28;20237;-77
2022/06/16 10:39:27;;;;;;;13.40;10.32;;;;;;;30.10;37.89;94940.13;5052089;28;20253;-77
2022/06/16 10:41:59;;;;;;;12.50;9.73;;;;;;;29.81;36.46;94933.81;5052468;28;20230;-78
2022/06/16 10:44:29;;;;;;;13.52;10.02;;;;;;;30.03;36.62;94926.38;5045759;28;20274;-75
2022/06/16 10:47:00;;;;;;;13.70;10.27;;;;;;;30.34;36.81;94924.56;5045395;28;20235;-76
2022/06/16 10:49:34;;;;;;;12.18;9.55;;;;;;;30.33;34.99;94931.41;5051693;28;20227;-77
2022/06/16 10:52:04;;;;;;;13.23;10.30;;;;;;;30.26;37.08;94923.25;5052363;28;20231;-77
2022/06/16 10:54:33;;;;;;;14.85;10.25;;;;;;;30.61;37.25;94912.97;5052042;28;20215;-77
2022/06/16 10:57:08;;;;;;;14.90;10.32;;;;;;;30.29;36.53;94918.78;5052374;28;20227;-77
2022/06/16 10:59:41;;;;;;;11.48;9.48;;;;;;;29.48;36.19;94933.97;5049625;28;20211;-77
2022/06/16 11:02:21;;;;;;;13.48;9.85;;;;;;;29.68;38.57;94926.19;5048481;28;20558;-77
2022/06/16 11:04:52;;;;;;;13.73;10.48;;;;;;;30.13;36.32;94922.47;5051569;28;20231;-77
2022/06/16 11:07:22;;;;;;;10.60;9.50;;;;;;;30.36;36.50;94908.13;5040237;28;20219;-78
2022/06/16 11:09:50;;;;;;;11.18;9.98;;;;;;;29.45;36.21;94912.50;5051879;28;20295;-77
2022/06/16 11:12:20;;;;;;;12.27;9.57;;;;;;;29.40;36.66;94913.03;5049128;28;20200;-77
2022/06/16 11:14:49;;;;;;;16.67;10.52;;;;;;;29.12;39.34;94920.19;5038800;28;20223;-76
2022/06/16 11:17:22;;;;;;;12.73;9.43;;;;;;;28.80;36.69;94918.25;5041711;28;20200;-77
2022/06/16 11:19:52;;;;;;;14.25;9.40;;;;;;;28.24;37.50;94921.22;5041912;28;20223;-77
2022/06/16 11:22:29;;;;;;;16.35;10.10;;;;;;;28.32;37.71;94909.88;5043170;28;20293;-76
2022/06/16 11:25:02;;;;;;;11.98;9.18;;;;;;;28.38;39.32;94913.75;5051382;28;20281;-76
2022/06/16 11:27:39;;;;;;;12.18;9.15;;;;;;;27.22;39.57;94918.63;5051239;28;20238;-73
2022/06/16 11:30:32;;;;;;;10.25;8.77;;;;;;;26.35;40.36;94917.03;5039642;28;20206;-75
2022/06/16 11:33:00;;;;;;;13.07;9.95;;;;;;;26.36;40.92;94913.03;5050955;28;20569;-76
2022/06/16 11:35:37;;;;;;;12.98;9.60;;;;;;;26.66;41.64;94907.34;5050492;28;20211;-75
2022/06/16 11:38:11;;;;;;;11.07;9.02;;;;;;;26.38;41.26;94908.59;5038478;28;20207;-77
2022/06/16 11:40:45;;;;;;;12.57;9.43;;;;;;;26.36;41.56;94907.50;5051591;28;20220;-75
2022/06/16 11:43:35;;;;;;;14.10;9.48;;;;;;;26.49;42.05;94911.22;5050929;28;20285;-77
2022/06/16 11:46:10;;;;;;;10.85;9.45;;;;;;;27.40;40.75;94909.94;5036597;28;20297;-77
2022/06/16 11:48:56;;;;;;;12.65;10.02;;;;;;;27.50;39.70;94906.13;5047756;28;20689;-77
2022/06/16 11:51:33;;;;;;;9.90;8.70;;;;;;;27.54;39.58;94904.84;5050384;28;20195;-77
2022/06/16 11:54:11;;;;;;;14.48;9.73;;;;;;;27.78;39.91;94899.19;5050612;28;20632;-77
2022/06/16 11:56:43;;;;;;;12.18;9.00;;;;;;;27.92;38.16;94904.44;5051489;28;20261;-78
2022/06/16 11:59:40;;;;;;;13.27;9.18;;;;;;;27.54;38.96;94895.72;5050547;28;20722;-77
2022/06/16 12:02:36;;;;;;;12.18;10.20;;;;;;;27.17;39.96;94900.47;5049856;28;20713;-77
2022/06/16 12:05:33;;;;;;;14.80;9.80;;;;;;;27.01;40.88;94902.38;5050366;28;20725;-78